createdAt,value
2018-09-02T00:00:32.561Z,100038.41
2018-09-02T00:03:07.041Z,100033.74
2018-09-02T00:05:41.502Z,100030.01
2018-09-02T00:08:22.824Z,100033.61
2018-09-02T00:10:57.471Z,100030.48
2018-09-02T00:13:32.008Z,100021.79
2018-09-02T00:16:07.260Z,100028.70
2018-09-02T00:18:41.778Z,100023.77
2018-09-02T00:21:16.370Z,100016.98
2018-09-02T00:23:51.077Z,100016.73
2018-09-02T00:26:25.632Z,100016.80
2018-09-02T00:29:00.705Z,100014.73
2018-09-02T00:31:35.333Z,100011.61
2018-09-02T00:37:09.659Z,100013.28
2018-09-02T00:39:44.436Z,100016.87
2018-09-02T00:42:19.075Z,100016.56
2018-09-02T00:44:53.540Z,100010.20
2018-09-02T00:47:28.208Z,100013.31
2018-09-02T00:50:03.188Z,100009.78
2018-09-02T00:52:37.981Z,100014.91
2018-09-02T00:55:12.584Z,100007.86
2018-09-02T00:57:47.085Z,100015.23
2018-09-02T01:00:21.928Z,100006.73
2018-09-02T01:02:56.825Z,100006.41
2018-09-02T01:05:31.593Z,100007.30
2018-09-02T01:08:06.601Z,100004.77
2018-09-02T01:10:41.161Z,99999.67
2018-09-02T01:16:25.665Z,100008.72
2018-09-02T01:19:00.219Z,100011.95
2018-09-02T01:21:35.023Z,100012.12
2018-09-02T01:24:09.984Z,100017.43
2018-09-02T01:26:44.408Z,100021.27
2018-09-02T01:29:19.056Z,100027.66
2018-09-02T01:31:53.895Z,100022.75
2018-09-02T01:34:28.524Z,100033.17
2018-09-02T01:37:02.944Z,100030.39
2018-09-02T01:39:37.404Z,100026.84
2018-09-02T01:42:12.164Z,100027.91
2018-09-02T01:44:46.512Z,100028.34
2018-09-02T01:47:21.076Z,100029.05
2018-09-02T01:49:57.649Z,100030.11
2018-09-02T01:52:32.108Z,100026.57
2018-09-02T01:55:06.696Z,100030.47
2018-09-02T01:57:41.284Z,100027.98
2018-09-02T02:00:16.804Z,100025.36
2018-09-02T02:02:51.744Z,100022.63
2018-09-02T02:05:26.276Z,100023.48
2018-09-02T02:08:00.780Z,100017.58
2018-09-02T02:10:35.948Z,100012.84
2018-09-02T02:13:10.472Z,100018.25
2018-09-02T02:15:45.100Z,100019.04
2018-09-02T02:18:19.661Z,100020.14
2018-09-02T02:20:54.183Z,100017.36
2018-09-02T02:23:28.841Z,100011.66
2018-09-02T02:26:03.460Z,100014.48
2018-09-02T02:28:38.000Z,100006.47
2018-09-02T02:31:12.594Z,100009.75
2018-09-02T02:33:47.161Z,100005.48
2018-09-02T02:36:21.822Z,100000.48
2018-09-02T02:38:56.505Z,99995.28
2018-09-02T02:41:30.844Z,99995.28
2018-09-02T02:44:05.656Z,99993.41
2018-09-02T02:46:40.089Z,99991.98
2018-09-02T02:49:14.376Z,99990.67
2018-09-02T02:51:48.969Z,99992.54
2018-09-02T02:54:23.566Z,99991.93
2018-09-02T02:56:58.069Z,99984.96
2018-09-02T02:59:32.636Z,99981.02
2018-09-02T03:02:07.148Z,99978.81
2018-09-02T03:04:42.159Z,99980.08
2018-09-02T03:07:16.761Z,99981.83
2018-09-02T03:09:51.423Z,99974.14
2018-09-02T03:12:26.210Z,99975.91
2018-09-02T03:15:00.772Z,99970.10
2018-09-02T03:17:35.429Z,99971.74
2018-09-02T03:20:09.996Z,99971.64
2018-09-02T03:22:44.528Z,99974.06
2018-09-02T03:25:19.085Z,99970.63
2018-09-02T03:27:53.701Z,99965.17
2018-09-02T03:30:28.215Z,99966.12
2018-09-02T03:33:02.597Z,99965.38
2018-09-02T03:35:37.003Z,99962.74
2018-09-02T03:38:11.771Z,99959.25
2018-09-02T03:40:46.332Z,99963.95
2018-09-02T03:43:20.872Z,99965.42
2018-09-02T03:45:55.197Z,99968.20
2018-09-02T03:48:30.085Z,99963.86
2018-09-02T03:51:04.670Z,99956.95
2018-09-02T03:53:39.276Z,99961.30
2018-09-02T03:56:13.797Z,99954.91
2018-09-02T03:58:48.768Z,99956.67
2018-09-02T04:01:23.299Z,99959.95
2018-09-02T04:03:57.701Z,99962.59
2018-09-02T04:06:32.209Z,99956.47
2018-09-02T04:09:08.888Z,99952.42
2018-09-02T04:11:43.421Z,99952.98
2018-09-02T04:14:18.048Z,99952.44
2018-09-02T04:16:52.977Z,99946.28
2018-09-02T04:19:27.597Z,99945.73
2018-09-02T04:22:02.247Z,99943.18
2018-09-02T04:24:36.993Z,99941.67
2018-09-02T04:27:11.600Z,99943.89
2018-09-02T04:29:46.527Z,99940.44
2018-09-02T04:32:20.967Z,99934.30
2018-09-02T04:34:55.476Z,99936.42
2018-09-02T04:37:29.958Z,99930.97
2018-09-02T04:40:04.439Z,99931.57
2018-09-02T04:42:38.985Z,99928.94
2018-09-02T04:45:13.573Z,99931.70
2018-09-02T04:47:48.091Z,99934.39
2018-09-02T04:50:22.616Z,99935.66
2018-09-02T04:52:57.106Z,99933.75
2018-09-02T04:55:31.672Z,99933.49
2018-09-02T04:58:06.156Z,99933.65
2018-09-02T05:00:40.885Z,99934.20
2018-09-02T05:03:15.505Z,99933.70
2018-09-02T05:05:50.377Z,99931.48
2018-09-02T05:08:25.036Z,99929.00
2018-09-02T05:10:59.539Z,99929.77
2018-09-02T05:13:34.062Z,99934.41
2018-09-02T05:16:08.449Z,99933.09
2018-09-02T05:18:43.166Z,99935.72
2018-09-02T05:30:15.325Z,99941.08
2018-09-02T05:32:50.156Z,99942.13
2018-09-02T05:35:24.750Z,99945.06
2018-09-02T05:37:59.108Z,99940.91
2018-09-02T05:40:33.672Z,99942.72
2018-09-02T05:43:08.271Z,99942.67
2018-09-02T05:45:43.041Z,99941.27
2018-09-02T05:48:17.605Z,99949.50
2018-09-02T05:50:52.072Z,99945.03
2018-09-02T05:53:26.757Z,99943.50
2018-09-02T05:56:01.276Z,99939.50
2018-09-02T05:58:35.897Z,99943.13
2018-09-02T06:01:10.424Z,99932.78
2018-09-02T06:03:44.940Z,99933.54
2018-09-02T06:06:19.762Z,99932.60
2018-09-02T06:08:54.324Z,99940.50
2018-09-02T06:11:28.735Z,99941.69
2018-09-02T06:17:12.809Z,99940.06
2018-09-02T06:19:47.412Z,99941.54
2018-09-02T06:22:22.014Z,99940.14
2018-09-02T06:24:56.541Z,99933.23
2018-09-02T06:27:31.163Z,99940.42
2018-09-02T06:30:06.061Z,99937.86
2018-09-02T06:32:40.520Z,99942.60
2018-09-02T06:35:15.007Z,99937.50
2018-09-02T06:37:49.445Z,99943.97
2018-09-02T06:40:24.401Z,99943.95
2018-09-02T06:42:59.100Z,99942.88
2018-09-02T06:45:33.738Z,99934.00
2018-09-02T06:48:08.064Z,99943.75
2018-09-02T06:50:42.668Z,99937.55
2018-09-02T06:53:17.698Z,99935.34
2018-09-02T06:55:52.404Z,99943.11
2018-09-02T06:58:27.021Z,99932.81
2018-09-02T07:01:01.484Z,99945.28
2018-09-02T07:03:36.224Z,99933.48
2018-09-02T07:06:10.696Z,99921.92
2018-09-02T07:08:45.276Z,99930.77
2018-09-02T07:11:19.854Z,99927.32
2018-09-02T07:13:54.756Z,99923.27
2018-09-02T07:16:29.348Z,99927.48
2018-09-02T07:19:04.549Z,99931.21
2018-09-02T07:21:38.963Z,99928.55
2018-09-02T07:24:13.429Z,99927.61
2018-09-02T07:26:57.853Z,99935.06
2018-09-02T07:29:32.381Z,99934.05
2018-09-02T07:32:06.884Z,99930.89
2018-09-02T07:34:41.377Z,99930.07
2018-09-02T07:37:15.969Z,99927.25
2018-09-02T07:39:50.348Z,99930.57
2018-09-02T07:42:24.826Z,99931.30
2018-09-02T07:44:59.356Z,99924.84
2018-09-02T07:47:33.850Z,99926.66
2018-09-02T07:50:08.447Z,99932.56
2018-09-02T07:52:43.012Z,99935.78
2018-09-02T07:55:17.541Z,99931.03
2018-09-02T07:57:52.230Z,99928.63
2018-09-02T08:00:26.804Z,99920.98
2018-09-02T08:03:01.341Z,99917.08
2018-09-02T08:05:36.017Z,99925.66
2018-09-02T08:08:10.645Z,99928.96
2018-09-02T08:10:45.039Z,99928.12
2018-09-02T08:13:19.970Z,99925.72
2018-09-02T08:15:54.365Z,99917.80
2018-09-02T08:18:28.838Z,99921.73
2018-09-02T08:21:05.566Z,99919.88
2018-09-02T08:23:40.348Z,99917.58
2018-09-02T08:26:14.964Z,99918.47
2018-09-02T08:28:49.592Z,99912.70
2018-09-02T08:31:24.922Z,99912.69
2018-09-02T08:33:59.486Z,99912.48
2018-09-02T08:36:34.368Z,99918.98
2018-09-02T08:39:10.636Z,99910.86
2018-09-02T08:41:45.087Z,99903.45
2018-09-02T08:44:19.673Z,99912.33
2018-09-02T08:46:54.013Z,99904.77
2018-09-02T08:49:28.529Z,99895.45
2018-09-02T08:52:04.145Z,99907.81
2018-09-02T08:57:38.176Z,99902.65
2018-09-02T09:00:13.973Z,99895.86
2018-09-02T09:02:49.769Z,99895.09
2018-09-02T09:05:24.494Z,99894.34
2018-09-02T09:07:59.145Z,99898.66
2018-09-02T09:10:33.636Z,99895.06
2018-09-02T09:13:07.981Z,99890.32
2018-09-02T09:15:42.292Z,99886.34
2018-09-02T09:18:16.761Z,99879.95
2018-09-02T09:20:51.535Z,99883.63
2018-09-02T09:23:25.960Z,99891.13
2018-09-02T09:26:00.404Z,99882.72
2018-09-02T09:28:34.965Z,99883.71
2018-09-02T09:31:09.932Z,99880.38
2018-09-02T09:33:44.480Z,99883.20
2018-09-02T09:36:19.022Z,99885.23
2018-09-02T09:38:53.480Z,99885.17
2018-09-02T09:41:28.105Z,99886.31
2018-09-02T09:44:02.568Z,99881.05
2018-09-02T09:46:37.012Z,99879.86
2018-09-02T09:49:11.607Z,99884.68
2018-09-02T09:51:45.981Z,99882.72
2018-09-02T09:54:20.754Z,99879.16
2018-09-02T09:56:55.256Z,99873.86
2018-09-02T09:59:29.804Z,99878.81
2018-09-02T10:02:04.269Z,99873.47
2018-09-02T10:04:38.935Z,99875.15
2018-09-02T10:07:13.540Z,99874.19
2018-09-02T10:09:49.337Z,99866.55
2018-09-02T10:12:23.752Z,99868.89
2018-09-02T10:14:58.474Z,99858.39
2018-09-02T10:17:33.104Z,99863.63
2018-09-02T10:20:07.902Z,99861.73
2018-09-02T10:22:42.549Z,99858.39
2018-09-02T10:25:17.088Z,99851.62
2018-09-02T10:27:51.805Z,99851.39
2018-09-02T10:30:26.716Z,99853.44
2018-09-02T10:33:01.239Z,99846.20
2018-09-02T10:35:36.425Z,99846.02
2018-09-02T10:38:11.217Z,99836.76
2018-09-02T10:40:45.756Z,99830.59
2018-09-02T10:43:22.063Z,99831.23
2018-09-02T10:45:56.928Z,99831.98
2018-09-02T10:54:29.184Z,99817.94
2018-09-02T10:57:03.713Z,99817.55
2018-09-02T10:59:38.816Z,99822.98
2018-09-02T11:02:13.493Z,99823.95
2018-09-02T11:04:48.140Z,99820.47
2018-09-02T11:07:23.328Z,99807.64
2018-09-02T11:09:57.813Z,99819.26
2018-09-02T11:12:32.451Z,99813.88
2018-09-02T11:15:07.490Z,99816.83
2018-09-02T11:17:42.012Z,99812.40
2018-09-02T11:20:16.633Z,99803.30
2018-09-02T11:22:51.020Z,99806.06
2018-09-02T11:25:25.485Z,99805.34
2018-09-02T11:28:00.015Z,99799.59
2018-09-02T11:30:34.678Z,99796.63
2018-09-02T11:33:09.327Z,99801.02
2018-09-02T11:38:55.640Z,99796.34
2018-09-02T11:41:30.130Z,99796.50
2018-09-02T11:44:04.920Z,99793.59
2018-09-02T11:46:39.564Z,99789.20
2018-09-02T11:49:14.076Z,99787.39
2018-09-02T11:51:48.584Z,99784.62
2018-09-02T11:54:23.241Z,99775.88
2018-09-02T11:56:57.781Z,99773.20
2018-09-02T11:59:32.457Z,99772.84
2018-09-02T12:02:06.944Z,99772.16
2018-09-02T12:04:41.364Z,99773.16
2018-09-02T12:07:15.917Z,99774.97
2018-09-02T12:09:50.395Z,99772.16
2018-09-02T12:12:24.929Z,99763.91
2018-09-02T12:14:59.396Z,99764.34
2018-09-02T12:17:34.001Z,99759.48
2018-09-02T12:20:08.881Z,99750.11
2018-09-02T12:22:43.693Z,99751.71
2018-09-02T12:25:18.472Z,99755.05
2018-09-02T12:27:52.890Z,99758.20
2018-09-02T12:33:46.939Z,99749.52
2018-09-02T12:36:21.375Z,99751.27
2018-09-02T12:38:56.165Z,99741.67
2018-09-02T12:41:30.661Z,99746.95
2018-09-02T12:44:05.126Z,99741.20
2018-09-02T12:46:39.717Z,99738.08
2018-09-02T12:49:14.273Z,99731.50
2018-09-02T12:51:49.052Z,99733.91
2018-09-02T12:54:23.767Z,99737.20
2018-09-02T12:56:58.316Z,99736.63
2018-09-02T12:59:32.941Z,99732.91
2018-09-02T13:02:07.436Z,99725.69
2018-09-02T13:04:41.843Z,99724.33
2018-09-02T13:07:16.269Z,99718.50
2018-09-02T13:09:50.813Z,99720.73
2018-09-02T13:12:25.281Z,99722.78
2018-09-02T13:14:59.872Z,99724.06
2018-09-02T13:17:41.121Z,99714.19
2018-09-02T13:20:15.597Z,99716.52
2018-09-02T13:22:50.094Z,99711.31
2018-09-02T13:25:24.957Z,99713.34
2018-09-02T13:27:59.512Z,99706.14
2018-09-02T13:30:34.153Z,99693.50
2018-09-02T13:33:08.605Z,99691.17
2018-09-02T13:35:42.978Z,99689.41
2018-09-02T13:38:17.396Z,99688.56
2018-09-02T13:40:51.985Z,99675.64
2018-09-02T13:43:45.001Z,99682.22
2018-09-02T13:46:19.344Z,99675.67
2018-09-02T13:48:53.652Z,99680.01
2018-09-02T13:51:28.180Z,99670.98
2018-09-02T13:54:02.840Z,99670.59
2018-09-02T13:56:37.482Z,99664.63
2018-09-02T13:59:12.007Z,99669.97
2018-09-02T14:01:46.564Z,99665.39
2018-09-02T14:04:21.069Z,99664.59
2018-09-02T14:06:55.635Z,99653.00
2018-09-02T14:09:30.472Z,99653.19
2018-09-02T14:12:05.297Z,99643.51
2018-09-02T14:14:40.036Z,99646.01
2018-09-02T14:17:14.500Z,99644.66
2018-09-02T14:19:49.052Z,99641.42
2018-09-02T14:22:23.512Z,99641.66
2018-09-02T14:24:58.177Z,99627.87
2018-09-02T14:27:32.673Z,99630.39
2018-09-02T14:30:07.662Z,99622.57
2018-09-02T14:32:42.148Z,99622.03
2018-09-02T14:35:17.002Z,99628.16
2018-09-02T14:37:51.357Z,99624.27
2018-09-02T14:40:26.028Z,99618.34
2018-09-02T14:43:00.673Z,99618.17
2018-09-02T14:45:35.201Z,99619.23
2018-09-02T14:48:09.616Z,99615.89
2018-09-02T14:50:44.182Z,99611.49
2018-09-02T14:53:18.511Z,99602.63
2018-09-02T14:55:52.980Z,99610.92
2018-09-02T14:58:27.533Z,99604.16
2018-09-02T15:01:02.197Z,99606.44
2018-09-02T15:03:36.821Z,99603.88
2018-09-02T15:06:11.395Z,99608.70
2018-09-02T15:08:45.842Z,99603.09
2018-09-02T15:11:20.487Z,99609.86
2018-09-02T15:13:54.989Z,99605.88
2018-09-02T15:16:29.844Z,99612.56
2018-09-02T15:19:05.608Z,99603.63
2018-09-02T15:21:40.485Z,99604.65
2018-09-02T15:24:15.233Z,99598.08
2018-09-02T15:26:49.985Z,99596.55
2018-09-02T15:29:24.646Z,99594.89
2018-09-02T15:31:59.186Z,99590.52
2018-09-02T15:34:33.720Z,99591.00
2018-09-02T15:37:08.314Z,99599.08
2018-09-02T15:39:42.869Z,99587.05
2018-09-02T15:42:17.352Z,99583.94
2018-09-02T15:44:51.817Z,99585.16
2018-09-02T15:47:26.232Z,99580.56
2018-09-02T15:50:00.701Z,99575.19
2018-09-02T15:52:35.505Z,99568.17
2018-09-02T15:55:10.024Z,99575.98
2018-09-02T15:57:44.473Z,99569.48
2018-09-02T16:00:19.048Z,99572.63
2018-09-02T16:02:53.663Z,99575.83
2018-09-02T16:05:28.128Z,99578.21
2018-09-02T16:08:02.472Z,99579.16
2018-09-02T16:10:37.133Z,99581.98
2018-09-02T16:22:29.584Z,99571.22
2018-09-02T16:25:04.216Z,99570.69
2018-09-02T16:27:38.744Z,99571.94
2018-09-02T16:30:13.068Z,99574.70
2018-09-02T16:32:47.554Z,99571.28
2018-09-02T16:35:22.056Z,99570.36
2018-09-02T16:37:56.712Z,99572.18
2018-09-02T16:40:31.397Z,99566.84
2018-09-02T16:43:06.100Z,99563.61
2018-09-02T16:45:40.576Z,99567.86
2018-09-02T16:48:15.154Z,99564.68
2018-09-02T16:50:49.725Z,99555.41
2018-09-02T16:53:38.623Z,99557.96
2018-09-02T16:56:13.152Z,99563.03
2018-09-02T16:58:47.965Z,99565.54
2018-09-02T17:01:22.554Z,99563.80
2018-09-02T17:04:02.552Z,99568.65
2018-09-02T17:06:37.684Z,99567.02
2018-09-02T17:09:12.749Z,99568.71
2018-09-02T17:11:47.625Z,99563.12
2018-09-02T17:14:36.157Z,99566.14
2018-09-02T17:17:10.633Z,99563.51
2018-09-02T17:19:47.692Z,99567.75
2018-09-02T17:22:22.271Z,99570.02
2018-09-02T17:24:56.765Z,99561.66
2018-09-02T17:27:31.240Z,99559.78
2018-09-02T17:30:06.077Z,99560.95
2018-09-02T17:32:40.571Z,99557.32
2018-09-02T17:35:15.232Z,99558.92
2018-09-02T17:37:49.769Z,99555.74
2018-09-02T17:40:24.232Z,99559.30
2018-09-02T17:42:58.782Z,99559.02
2018-09-02T17:45:33.597Z,99550.36
2018-09-02T17:48:08.269Z,99546.73
2018-09-02T17:50:42.741Z,99551.30
2018-09-02T17:53:17.194Z,99547.80
2018-09-02T17:55:51.785Z,99548.83
2018-09-02T17:58:26.345Z,99552.25
2018-09-02T18:01:01.537Z,99545.76
2018-09-02T18:06:35.706Z,99544.13
2018-09-02T18:09:11.157Z,99546.53
2018-09-02T18:11:45.770Z,99548.42
2018-09-02T18:14:32.232Z,99552.77
2018-09-02T18:17:06.972Z,99551.31
2018-09-02T18:19:41.564Z,99556.44
2018-09-02T18:22:16.268Z,99553.59
2018-09-02T18:27:55.897Z,99557.23
2018-09-02T18:30:30.507Z,99563.10
2018-09-02T18:33:05.185Z,99565.06
2018-09-02T18:35:39.941Z,99573.62
2018-09-02T18:38:14.450Z,99572.95
2018-09-02T18:40:48.877Z,99575.52
2018-09-02T18:43:23.473Z,99577.40
2018-09-02T18:45:58.043Z,99577.31
2018-09-02T18:48:44.748Z,99580.73
2018-09-02T18:54:20.260Z,99582.92
2018-09-02T18:56:54.804Z,99588.11
2018-09-02T18:59:29.447Z,99588.38
2018-09-02T19:02:04.404Z,99584.54
2018-09-02T19:04:39.169Z,99580.41
2018-09-02T19:07:13.614Z,99586.72
2018-09-02T19:09:48.328Z,99592.38
2018-09-02T19:12:23.221Z,99588.95
2018-09-02T19:14:57.958Z,99594.61
2018-09-02T19:17:32.497Z,99598.16
2018-09-02T19:20:07.477Z,99594.25
2018-09-02T19:22:42.024Z,99589.58
2018-09-02T19:25:16.785Z,99584.78
2018-09-02T19:27:51.332Z,99588.35
2018-09-02T19:30:25.976Z,99587.64
2018-09-02T19:33:00.465Z,99581.77
2018-09-02T19:35:35.017Z,99579.38
2018-09-02T19:38:09.653Z,99586.80
2018-09-02T19:40:44.204Z,99589.69
2018-09-02T19:43:18.745Z,99585.78
2018-09-02T19:45:53.384Z,99586.94
2018-09-02T19:48:27.954Z,99579.95
2018-09-02T19:51:02.568Z,99588.75
2018-09-02T19:53:37.808Z,99579.33
2018-09-02T19:56:12.344Z,99576.38
2018-09-02T19:58:47.033Z,99579.17
2018-09-02T20:01:21.528Z,99571.94
2018-09-02T20:03:56.233Z,99571.48
2018-09-02T20:06:30.733Z,99565.84
2018-09-02T20:09:13.272Z,99566.42
2018-09-02T20:11:48.094Z,99565.30
2018-09-02T20:14:22.852Z,99563.28
2018-09-02T20:16:57.802Z,99558.20
2018-09-02T20:19:32.232Z,99560.38
2018-09-02T20:22:09.236Z,99555.25
2018-09-02T20:24:43.852Z,99553.45
2018-09-02T20:27:18.234Z,99551.47
2018-09-02T20:29:52.832Z,99546.25
2018-09-02T20:32:27.272Z,99550.38
2018-09-02T20:35:01.886Z,99546.41
2018-09-02T20:37:36.448Z,99549.06
2018-09-02T20:40:11.032Z,99554.70
2018-09-02T20:42:45.593Z,99549.55
2018-09-02T20:45:20.428Z,99543.81
2018-09-02T20:47:55.384Z,99539.70
2018-09-02T20:50:29.732Z,99544.34
2018-09-02T20:53:04.149Z,99540.73
2018-09-02T20:55:38.800Z,99539.73
2018-09-02T20:58:13.334Z,99536.53
2018-09-02T21:00:47.824Z,99536.08
2018-09-02T21:03:22.303Z,99534.02
2018-09-02T21:05:57.204Z,99530.00
2018-09-02T21:08:31.827Z,99530.37
2018-09-02T21:11:06.364Z,99526.80
2018-09-02T21:13:40.958Z,99525.89
2018-09-02T21:16:15.425Z,99522.55
2018-09-02T21:18:49.961Z,99530.59
2018-09-02T21:21:24.525Z,99533.34
2018-09-02T21:23:59.037Z,99535.52
2018-09-02T21:26:33.462Z,99530.13
2018-09-02T21:29:07.924Z,99525.66
2018-09-02T21:31:42.545Z,99525.00
2018-09-02T21:34:17.014Z,99522.60
2018-09-02T21:36:51.644Z,99521.81
2018-09-02T21:39:26.063Z,99524.90
2018-09-02T21:42:00.513Z,99524.23
2018-09-02T21:44:35.219Z,99518.04
2018-09-02T21:47:09.635Z,99524.22
2018-09-02T21:49:44.533Z,99523.44
2018-09-02T21:52:19.119Z,99523.44
2018-09-02T21:54:53.732Z,99523.56
2018-09-02T21:57:28.310Z,99518.61
2018-09-02T22:00:03.155Z,99514.50
2018-09-02T22:02:37.576Z,99522.06
2018-09-02T22:05:13.492Z,99518.97
2018-09-02T22:07:48.031Z,99508.20
2018-09-02T22:10:22.554Z,99509.30
2018-09-02T22:12:57.139Z,99504.29
2018-09-02T22:15:31.997Z,99498.31
2018-09-02T22:18:06.881Z,99495.47
2018-09-02T22:20:41.424Z,99501.64
2018-09-02T22:23:15.808Z,99502.56
2018-09-02T22:25:50.264Z,99503.37
2018-09-02T22:28:24.658Z,99500.72
2018-09-02T22:30:59.237Z,99499.48
2018-09-02T22:33:33.839Z,99501.06
2018-09-02T22:36:08.541Z,99499.81
2018-09-02T22:38:43.094Z,99494.11
2018-09-02T22:41:17.504Z,99490.89
2018-09-02T22:43:52.138Z,99485.64
2018-09-02T22:46:26.680Z,99484.34
2018-09-02T22:49:01.288Z,99488.84
2018-09-02T22:51:35.901Z,99490.42
2018-09-02T22:54:10.349Z,99490.66
2018-09-02T22:56:44.961Z,99483.09
2018-09-02T22:59:19.556Z,99479.55
2018-09-02T23:01:54.048Z,99477.04
2018-09-02T23:04:28.643Z,99479.89
2018-09-02T23:07:03.246Z,99475.20
2018-09-02T23:09:38.014Z,99474.27
2018-09-02T23:12:12.629Z,99465.58
2018-09-02T23:14:47.212Z,99465.92
2018-09-02T23:17:21.744Z,99463.74
2018-09-02T23:19:56.223Z,99462.71
2018-09-02T23:22:30.728Z,99462.85
2018-09-02T23:25:05.358Z,99461.71
2018-09-02T23:27:40.026Z,99450.23
2018-09-02T23:30:14.680Z,99446.34
2018-09-02T23:32:49.324Z,99449.34
2018-09-02T23:35:27.037Z,99444.07
2018-09-02T23:38:14.758Z,99441.61
2018-09-02T23:40:49.120Z,99432.22
2018-09-02T23:43:23.609Z,99440.08
2018-09-02T23:45:58.056Z,99435.61
2018-09-02T23:48:32.464Z,99441.03
2018-09-02T23:51:06.997Z,99433.02
2018-09-02T23:53:41.621Z,99434.81
2018-09-02T23:56:16.222Z,99427.06
2018-09-02T23:58:50.938Z,99415.25
